sensor_id;sensor_type;location;lat;lon;timestamp;pressure;altitude;pressure_sealevel;temperature;humidity
3206;BME280;1615;53.602;11.418;2023-06-24T00:01:42;101833.19;;;17.50;100.00
3206;BME280;1615;53.602;11.418;2023-06-24T00:04:08;101836.91;;;17.45;100.00
3206;BME280;1615;53.602;11.418;2023-06-24T00:06:33;101738.00;;;16.83;100.00
3206;BME280;1615;53.602;11.418;2023-06-24T00:08:59;101815.97;;;17.26;100.00
3206;BME280;1615;53.602;11.418;2023-06-24T00:11:28;101882.69;;;17.29;100.00
3206;BME280;1615;53.602;11.418;2023-06-24T00:13:54;101783.00;;;16.89;100.00
3206;BME280;1615;53.602;11.418;2023-06-24T00:16:20;101760.69;;;16.72;100.00
3206;BME280;1615;53.602;11.418;2023-06-24T00:18:52;101832.84;;;17.16;100.00
3206;BME280;1615;53.602;11.418;2023-06-24T00:21:18;101847.22;;;17.18;100.00
3206;BME280;1615;53.602;11.418;2023-06-24T00:23:44;101847.00;;;17.14;100.00
3206;BME280;1615;53.602;11.418;2023-06-24T00:26:12;101780.81;;;16.64;100.00
3206;BME280;1615;53.602;11.418;2023-06-24T00:28:37;101867.34;;;17.10;100.00
3206;BME280;1615;53.602;11.418;2023-06-24T00:31:02;101859.97;;;17.05;100.00
3206;BME280;1615;53.602;11.418;2023-06-24T00:33:28;101834.50;;;16.90;100.00
3206;BME280;1615;53.602;11.418;2023-06-24T00:35:54;101845.19;;;16.83;100.00
3206;BME280;1615;53.602;11.418;2023-06-24T00:38:21;101861.59;;;16.93;100.00
3206;BME280;1615;53.602;11.418;2023-06-24T00:40:46;101871.84;;;16.92;100.00
3206;BME280;1615;53.602;11.418;2023-06-24T00:43:12;101857.91;;;16.84;100.00
3206;BME280;1615;53.602;11.418;2023-06-24T00:45:38;101878.03;;;17.03;100.00
3206;BME280;1615;53.602;11.418;2023-06-24T00:48:04;101796.59;;;16.50;100.00
3206;BME280;1615;53.602;11.418;2023-06-24T00:50:29;101844.38;;;16.82;100.00
3206;BME280;1615;53.602;11.418;2023-06-24T00:52:54;101871.44;;;16.99;100.00
3206;BME280;1615;53.602;11.418;2023-06-24T00:55:20;101854.00;;;16.85;100.00
3206;BME280;1615;53.602;11.418;2023-06-24T00:57:47;101873.09;;;17.00;100.00
3206;BME280;1615;53.602;11.418;2023-06-24T01:00:21;101856.06;;;16.93;100.00
3206;BME280;1615;53.602;11.418;2023-06-24T01:02:48;101870.84;;;17.02;100.00
3206;BME280;1615;53.602;11.418;2023-06-24T01:05:14;101862.22;;;16.90;100.00
3206;BME280;1615;53.602;11.418;2023-06-24T01:07:41;101872.47;;;17.03;100.00
3206;BME280;1615;53.602;11.418;2023-06-24T01:10:08;101755.44;;;16.30;100.00
3206;BME280;1615;53.602;11.418;2023-06-24T01:12:35;101851.78;;;16.87;100.00
3206;BME280;1615;53.602;11.418;2023-06-24T01:15:01;101840.91;;;16.77;100.00
3206;BME280;1615;53.602;11.418;2023-06-24T01:17:32;101874.97;;;16.91;100.00
3206;BME280;1615;53.602;11.418;2023-06-24T01:21:06;101883.03;;;17.01;100.00
3206;BME280;1615;53.602;11.418;2023-06-24T01:25:58;101888.25;;;17.16;100.00
3206;BME280;1615;53.602;11.418;2023-06-24T01:31:51;101887.03;;;17.08;100.00
3206;BME280;1615;53.602;11.418;2023-06-24T01:37:25;101743.66;;;16.11;100.00
3206;BME280;1615;53.602;11.418;2023-06-24T01:40:04;101864.88;;;16.95;100.00
3206;BME280;1615;53.602;11.418;2023-06-24T01:42:45;101903.25;;;17.15;100.00
3206;BME280;1615;53.602;11.418;2023-06-24T01:45:28;101891.56;;;17.18;100.00
3206;BME280;1615;53.602;11.418;2023-06-24T01:48:16;101817.72;;;16.73;100.00
3206;BME280;1615;53.602;11.418;2023-06-24T01:50:54;101894.72;;;17.25;100.00
3206;BME280;1615;53.602;11.418;2023-06-24T01:53:22;101893.78;;;17.29;100.00
3206;BME280;1615;53.602;11.418;2023-06-24T01:55:48;101859.13;;;17.05;100.00
3206;BME280;1615;53.602;11.418;2023-06-24T01:58:17;101867.22;;;17.15;100.00
3206;BME280;1615;53.602;11.418;2023-06-24T02:00:44;101869.59;;;17.08;100.00
3206;BME280;1615;53.602;11.418;2023-06-24T02:03:11;101873.28;;;17.03;100.00
3206;BME280;1615;53.602;11.418;2023-06-24T02:05:37;101728.16;;;15.96;100.00
3206;BME280;1615;53.602;11.418;2023-06-24T02:08:08;101886.03;;;17.04;100.00
3206;BME280;1615;53.602;11.418;2023-06-24T02:10:37;101802.03;;;16.41;100.00
3206;BME280;1615;53.602;11.418;2023-06-24T02:13:04;101886.34;;;17.03;100.00
3206;BME280;1615;53.602;11.418;2023-06-24T02:15:30;101801.72;;;16.56;100.00
3206;BME280;1615;53.602;11.418;2023-06-24T02:17:57;101849.50;;;16.89;100.00
3206;BME280;1615;53.602;11.418;2023-06-24T02:20:23;101849.09;;;16.82;100.00
3206;BME280;1615;53.602;11.418;2023-06-24T02:22:52;101879.66;;;17.04;100.00
3206;BME280;1615;53.602;11.418;2023-06-24T02:25:18;101874.13;;;17.04;100.00
3206;BME280;1615;53.602;11.418;2023-06-24T02:27:43;101866.13;;;16.89;100.00
3206;BME280;1615;53.602;11.418;2023-06-24T02:30:09;101811.63;;;16.30;100.00
3206;BME280;1615;53.602;11.418;2023-06-24T02:32:35;101869.19;;;16.74;100.00
3206;BME280;1615;53.602;11.418;2023-06-24T02:35:03;101859.66;;;16.66;100.00
3206;BME280;1615;53.602;11.418;2023-06-24T02:37:29;101769.16;;;16.08;100.00
3206;BME280;1615;53.602;11.418;2023-06-24T02:39:56;101897.81;;;16.83;100.00
3206;BME280;1615;53.602;11.418;2023-06-24T02:42:21;101911.06;;;16.86;100.00
3206;BME280;1615;53.602;11.418;2023-06-24T02:44:46;101926.56;;;16.87;100.00
3206;BME280;1615;53.602;11.418;2023-06-24T02:47:14;101807.63;;;16.23;100.00
3206;BME280;1615;53.602;11.418;2023-06-24T02:49:42;101873.28;;;16.63;100.00
3206;BME280;1615;53.602;11.418;2023-06-24T02:52:08;101914.94;;;16.85;100.00
3206;BME280;1615;53.602;11.418;2023-06-24T02:54:34;101894.84;;;16.66;100.00
3206;BME280;1615;53.602;11.418;2023-06-24T02:57:00;101915.78;;;16.72;100.00
3206;BME280;1615;53.602;11.418;2023-06-24T02:59:25;101893.69;;;16.53;100.00
3206;BME280;1615;53.602;11.418;2023-06-24T03:01:51;101889.03;;;16.35;100.00
3206;BME280;1615;53.602;11.418;2023-06-24T03:04:18;101865.22;;;16.34;100.00
3206;BME280;1615;53.602;11.418;2023-06-24T03:06:45;101888.66;;;16.42;100.00
3206;BME280;1615;53.602;11.418;2023-06-24T03:09:10;101896.84;;;16.47;100.00
3206;BME280;1615;53.602;11.418;2023-06-24T03:11:43;101928.06;;;16.66;100.00
3206;BME280;1615;53.602;11.418;2023-06-24T03:14:09;101929.72;;;16.67;100.00
3206;BME280;1615;53.602;11.418;2023-06-24T03:16:35;101790.50;;;15.75;100.00
3206;BME280;1615;53.602;11.418;2023-06-24T03:19:00;101949.09;;;16.67;100.00
3206;BME280;1615;53.602;11.418;2023-06-24T03:21:25;101923.31;;;16.53;100.00
3206;BME280;1615;53.602;11.418;2023-06-24T03:23:56;101949.94;;;16.67;100.00
3206;BME280;1615;53.602;11.418;2023-06-24T03:26:24;101923.03;;;16.54;100.00
3206;BME280;1615;53.602;11.418;2023-06-24T03:28:50;101927.97;;;16.71;100.00
3206;BME280;1615;53.602;11.418;2023-06-24T03:31:15;101899.34;;;16.62;100.00
3206;BME280;1615;53.602;11.418;2023-06-24T03:33:41;101890.25;;;16.61;100.00
3206;BME280;1615;53.602;11.418;2023-06-24T03:36:09;101934.69;;;16.97;100.00
3206;BME280;1615;53.602;11.418;2023-06-24T03:38:35;101915.38;;;16.92;100.00
3206;BME280;1615;53.602;11.418;2023-06-24T03:41:00;101912.41;;;17.02;100.00
3206;BME280;1615;53.602;11.418;2023-06-24T03:43:25;101917.00;;;17.06;100.00
3206;BME280;1615;53.602;11.418;2023-06-24T03:45:51;101871.06;;;16.78;100.00
3206;BME280;1615;53.602;11.418;2023-06-24T03:48:16;101843.88;;;16.67;100.00
3206;BME280;1615;53.602;11.418;2023-06-24T03:50:41;101931.28;;;17.40;100.00
3206;BME280;1615;53.602;11.418;2023-06-24T03:53:06;101908.59;;;17.25;100.00
3206;BME280;1615;53.602;11.418;2023-06-24T03:55:32;101937.63;;;17.54;100.00
3206;BME280;1615;53.602;11.418;2023-06-24T03:57:57;101779.16;;;16.63;100.00
3206;BME280;1615;53.602;11.418;2023-06-24T04:00:23;101912.88;;;17.58;100.00
3206;BME280;1615;53.602;11.418;2023-06-24T04:02:48;101901.03;;;17.66;100.00
3206;BME280;1615;53.602;11.418;2023-06-24T04:05:13;101898.28;;;17.66;100.00
3206;BME280;1615;53.602;11.418;2023-06-24T04:07:39;101904.81;;;17.70;100.00
3206;BME280;1615;53.602;11.418;2023-06-24T04:10:05;101935.38;;;17.92;100.00
3206;BME280;1615;53.602;11.418;2023-06-24T04:12:34;101933.84;;;17.86;100.00
3206;BME280;1615;53.602;11.418;2023-06-24T04:15:03;101933.09;;;17.94;100.00
3206;BME280;1615;53.602;11.418;2023-06-24T04:17:29;101883.41;;;17.84;100.00
3206;BME280;1615;53.602;11.418;2023-06-24T04:19:55;101616.16;;;16.21;100.00
3206;BME280;1615;53.602;11.418;2023-06-24T04:22:20;101893.03;;;17.86;100.00
3206;BME280;1615;53.602;11.418;2023-06-24T04:24:45;101916.81;;;18.01;100.00
3206;BME280;1615;53.602;11.418;2023-06-24T04:27:10;101840.88;;;17.53;100.00
3206;BME280;1615;53.602;11.418;2023-06-24T04:29:36;101840.63;;;17.63;100.00
3206;BME280;1615;53.602;11.418;2023-06-24T04:32:02;101902.47;;;17.99;100.00
3206;BME280;1615;53.602;11.418;2023-06-24T04:34:27;101884.84;;;17.81;100.00
3206;BME280;1615;53.602;11.418;2023-06-24T04:36:52;101911.91;;;17.98;100.00
3206;BME280;1615;53.602;11.418;2023-06-24T04:39:18;101849.97;;;17.67;100.00
3206;BME280;1615;53.602;11.418;2023-06-24T04:41:43;101934.63;;;18.22;100.00
3206;BME280;1615;53.602;11.418;2023-06-24T04:44:08;101919.22;;;18.16;100.00
3206;BME280;1615;53.602;11.418;2023-06-24T04:46:34;101870.84;;;18.08;100.00
3206;BME280;1615;53.602;11.418;2023-06-24T04:49:00;101946.81;;;18.56;100.00
3206;BME280;1615;53.602;11.418;2023-06-24T04:51:25;101900.81;;;18.42;100.00
3206;BME280;1615;53.602;11.418;2023-06-24T04:53:50;101927.25;;;18.70;100.00
3206;BME280;1615;53.602;11.418;2023-06-24T04:56:15;101947.81;;;18.91;100.00
3206;BME280;1615;53.602;11.418;2023-06-24T04:58:41;101954.81;;;18.88;100.00
3206;BME280;1615;53.602;11.418;2023-06-24T05:01:06;101849.53;;;18.17;100.00
3206;BME280;1615;53.602;11.418;2023-06-24T05:03:31;101866.84;;;18.45;100.00
3206;BME280;1615;53.602;11.418;2023-06-24T05:05:57;101971.03;;;19.25;100.00
3206;BME280;1615;53.602;11.418;2023-06-24T05:08:22;101943.06;;;19.22;100.00
3206;BME280;1615;53.602;11.418;2023-06-24T05:10:47;101969.44;;;19.41;100.00
3206;BME280;1615;53.602;11.418;2023-06-24T05:13:13;101951.47;;;19.47;100.00
3206;BME280;1615;53.602;11.418;2023-06-24T05:15:38;101917.59;;;19.37;100.00
3206;BME280;1615;53.602;11.418;2023-06-24T05:18:03;101874.66;;;19.21;100.00
3206;BME280;1615;53.602;11.418;2023-06-24T05:20:28;101961.84;;;19.89;100.00
3206;BME280;1615;53.602;11.418;2023-06-24T05:22:54;101774.84;;;18.94;100.00
3206;BME280;1615;53.602;11.418;2023-06-24T05:25:19;101956.13;;;20.11;100.00
3206;BME280;1615;53.602;11.418;2023-06-24T05:27:45;101961.03;;;20.06;100.00
3206;BME280;1615;53.602;11.418;2023-06-24T05:30:10;101928.75;;;20.05;100.00
3206;BME280;1615;53.602;11.418;2023-06-24T05:32:36;101971.03;;;20.41;100.00
3206;BME280;1615;53.602;11.418;2023-06-24T05:35:01;101967.72;;;20.56;100.00
3206;BME280;1615;53.602;11.418;2023-06-24T05:37:26;101953.13;;;20.59;100.00
3206;BME280;1615;53.602;11.418;2023-06-24T05:39:52;101954.41;;;20.70;100.00
3206;BME280;1615;53.602;11.418;2023-06-24T05:42:18;101965.50;;;20.95;100.00
3206;BME280;1615;53.602;11.418;2023-06-24T05:44:43;101854.69;;;20.38;100.00
3206;BME280;1615;53.602;11.418;2023-06-24T05:47:08;101810.47;;;20.28;100.00
3206;BME280;1615;53.602;11.418;2023-06-24T05:49:33;101917.97;;;20.83;100.00
3206;BME280;1615;53.602;11.418;2023-06-24T05:51:59;101888.97;;;20.76;100.00
3206;BME280;1615;53.602;11.418;2023-06-24T05:54:24;101956.66;;;21.31;100.00
3206;BME280;1615;53.602;11.418;2023-06-24T05:56:50;101963.75;;;21.49;100.00
3206;BME280;1615;53.602;11.418;2023-06-24T05:59:15;101936.81;;;21.53;100.00
3206;BME280;1615;53.602;11.418;2023-06-24T06:01:40;101956.69;;;21.80;100.00
3206;BME280;1615;53.602;11.418;2023-06-24T06:04:06;101933.88;;;21.78;100.00
3206;BME280;1615;53.602;11.418;2023-06-24T06:06:31;101940.44;;;22.03;100.00
3206;BME280;1615;53.602;11.418;2023-06-24T06:08:57;101857.88;;;21.73;100.00
3206;BME280;1615;53.602;11.418;2023-06-24T06:11:22;101740.59;;;21.20;100.00
3206;BME280;1615;53.602;11.418;2023-06-24T06:13:48;101960.25;;;22.63;100.00
3206;BME280;1615;53.602;11.418;2023-06-24T06:16:13;101966.53;;;22.60;100.00
3206;BME280;1615;53.602;11.418;2023-06-24T06:18:38;101962.75;;;22.44;100.00
3206;BME280;1615;53.602;11.418;2023-06-24T06:21:04;101912.44;;;22.23;100.00
3206;BME280;1615;53.602;11.418;2023-06-24T06:23:29;101945.63;;;22.45;100.00
3206;BME280;1615;53.602;11.418;2023-06-24T06:25:55;101888.78;;;22.09;100.00
3206;BME280;1615;53.602;11.418;2023-06-24T06:28:20;101969.94;;;22.65;100.00
3206;BME280;1615;53.602;11.418;2023-06-24T06:30:45;101966.81;;;22.79;100.00
3206;BME280;1615;53.602;11.418;2023-06-24T06:33:11;101882.69;;;22.39;100.00
3206;BME280;1615;53.602;11.418;2023-06-24T06:35:36;101951.00;;;23.07;100.00
3206;BME280;1615;53.602;11.418;2023-06-24T06:38:02;101968.31;;;23.33;100.00
3206;BME280;1615;53.602;11.418;2023-06-24T06:40:27;101919.88;;;23.08;98.82
3206;BME280;1615;53.602;11.418;2023-06-24T06:42:54;101979.03;;;23.43;99.79
3206;BME280;1615;53.602;11.418;2023-06-24T06:45:19;101954.03;;;23.14;97.41
3206;BME280;1615;53.602;11.418;2023-06-24T06:47:44;101957.53;;;23.11;96.47
3206;BME280;1615;53.602;11.418;2023-06-24T06:50:10;101769.97;;;21.91;95.37
3206;BME280;1615;53.602;11.418;2023-06-24T06:52:35;101772.84;;;22.03;96.01
3206;BME280;1615;53.602;11.418;2023-06-24T06:55:01;101911.50;;;23.08;96.30
3206;BME280;1615;53.602;11.418;2023-06-24T06:57:26;101950.44;;;23.37;94.07
3206;BME280;1615;53.602;11.418;2023-06-24T06:59:51;102004.00;;;23.48;92.20
3206;BME280;1615;53.602;11.418;2023-06-24T07:02:17;101976.69;;;23.45;91.65
3206;BME280;1615;53.602;11.418;2023-06-24T07:04:43;101986.16;;;23.52;93.55
3206;BME280;1615;53.602;11.418;2023-06-24T07:07:09;101888.06;;;22.89;90.29
3206;BME280;1615;53.602;11.418;2023-06-24T07:09:34;101977.03;;;23.43;89.45
3206;BME280;1615;53.602;11.418;2023-06-24T07:11:59;101980.19;;;23.30;89.24
3206;BME280;1615;53.602;11.418;2023-06-24T07:14:25;101976.94;;;23.28;89.06
3206;BME280;1615;53.602;11.418;2023-06-24T07:16:50;101980.19;;;23.30;90.05
3206;BME280;1615;53.602;11.418;2023-06-24T07:19:15;101780.25;;;21.99;84.75
3206;BME280;1615;53.602;11.418;2023-06-24T07:21:40;101969.66;;;23.03;89.47
3206;BME280;1615;53.602;11.418;2023-06-24T07:24:06;101997.63;;;23.03;88.65
3206;BME280;1615;53.602;11.418;2023-06-24T07:26:31;101960.16;;;22.71;87.78
3206;BME280;1615;53.602;11.418;2023-06-24T07:28:57;102002.31;;;22.99;84.40
3206;BME280;1615;53.602;11.418;2023-06-24T07:31:25;102006.25;;;22.98;86.29
3206;BME280;1615;53.602;11.418;2023-06-24T07:33:51;102001.81;;;23.09;87.44
3206;BME280;1615;53.602;11.418;2023-06-24T07:36:16;101990.50;;;23.05;83.50
3206;BME280;1615;53.602;11.418;2023-06-24T07:38:42;101925.09;;;22.86;82.07
3206;BME280;1615;53.602;11.418;2023-06-24T07:41:07;101971.78;;;23.18;79.67
3206;BME280;1615;53.602;11.418;2023-06-24T07:43:32;101936.91;;;23.03;81.76
3206;BME280;1615;53.602;11.418;2023-06-24T07:45:58;101990.81;;;23.36;84.08
3206;BME280;1615;53.602;11.418;2023-06-24T07:48:23;101962.44;;;23.14;83.97
3206;BME280;1615;53.602;11.418;2023-06-24T07:50:48;101949.94;;;23.11;82.86
3206;BME280;1615;53.602;11.418;2023-06-24T07:53:14;101993.97;;;23.35;83.87
3206;BME280;1615;53.602;11.418;2023-06-24T07:55:39;101945.19;;;23.12;81.67
3206;BME280;1615;53.602;11.418;2023-06-24T07:58:05;101920.69;;;22.97;79.73
3206;BME280;1615;53.602;11.418;2023-06-24T08:00:30;101980.44;;;23.37;81.33
3206;BME280;1615;53.602;11.418;2023-06-24T08:02:57;101975.75;;;23.41;85.74
3206;BME280;1615;53.602;11.418;2023-06-24T08:05:23;101951.41;;;23.29;82.32
3206;BME280;1615;53.602;11.418;2023-06-24T08:07:50;101943.34;;;23.28;78.95
3206;BME280;1615;53.602;11.418;2023-06-24T08:10:15;101987.31;;;23.51;79.08
3206;BME280;1615;53.602;11.418;2023-06-24T08:12:41;101934.72;;;23.21;78.68
3206;BME280;1615;53.602;11.418;2023-06-24T08:15:06;101981.13;;;23.58;80.75
3206;BME280;1615;53.602;11.418;2023-06-24T08:17:32;101983.09;;;23.69;83.33
3206;BME280;1615;53.602;11.418;2023-06-24T08:19:57;101872.31;;;22.96;83.44
3206;BME280;1615;53.602;11.418;2023-06-24T08:22:23;101993.03;;;23.79;83.81
3206;BME280;1615;53.602;11.418;2023-06-24T08:24:48;101947.53;;;23.46;82.50
3206;BME280;1615;53.602;11.418;2023-06-24T08:27:13;101961.53;;;23.58;78.33
3206;BME280;1615;53.602;11.418;2023-06-24T08:29:39;101995.81;;;23.79;73.29
3206;BME280;1615;53.602;11.418;2023-06-24T08:32:04;101998.50;;;23.75;72.13
3206;BME280;1615;53.602;11.418;2023-06-24T08:34:32;101910.59;;;23.28;77.60
3206;BME280;1615;53.602;11.418;2023-06-24T08:36:57;101999.31;;;23.76;76.55
3206;BME280;1615;53.602;11.418;2023-06-24T08:39:23;101981.94;;;23.58;67.08
3206;BME280;1615;53.602;11.418;2023-06-24T08:41:48;101961.06;;;23.56;69.58
3206;BME280;1615;53.602;11.418;2023-06-24T08:44:13;101982.88;;;23.62;66.07
3206;BME280;1615;53.602;11.418;2023-06-24T08:46:39;101915.34;;;23.28;69.53
3206;BME280;1615;53.602;11.418;2023-06-24T08:51:41;101987.53;;;23.82;70.24
3206;BME280;1615;53.602;11.418;2023-06-24T08:54:09;101997.66;;;23.99;71.97
3206;BME280;1615;53.602;11.418;2023-06-24T08:56:36;101963.13;;;23.95;71.86
3206;BME280;1615;53.602;11.418;2023-06-24T08:59:08;101959.97;;;23.96;72.36
3206;BME280;1615;53.602;11.418;2023-06-24T09:01:33;101973.56;;;24.10;68.31
3206;BME280;1615;53.602;11.418;2023-06-24T09:03:59;101951.31;;;24.01;67.19
3206;BME280;1615;53.602;11.418;2023-06-24T09:06:24;101992.31;;;24.33;70.37
3206;BME280;1615;53.602;11.418;2023-06-24T09:08:54;101998.38;;;24.35;69.09
3206;BME280;1615;53.602;11.418;2023-06-24T09:11:37;101971.44;;;24.19;64.86
3206;BME280;1615;53.602;11.418;2023-06-24T09:14:02;102000.38;;;24.35;64.93
3206;BME280;1615;53.602;11.418;2023-06-24T09:16:29;101965.25;;;24.25;66.37
3206;BME280;1615;53.602;11.418;2023-06-24T09:18:54;101973.94;;;24.36;64.12
3206;BME280;1615;53.602;11.418;2023-06-24T09:21:27;101981.50;;;24.47;69.06
3206;BME280;1615;53.602;11.418;2023-06-24T09:23:54;101930.66;;;24.06;65.27
3206;BME280;1615;53.602;11.418;2023-06-24T09:26:24;101982.53;;;24.55;62.37
3206;BME280;1615;53.602;11.418;2023-06-24T09:28:49;101980.41;;;24.64;61.68
3206;BME280;1615;53.602;11.418;2023-06-24T09:31:15;101941.22;;;24.40;64.86
3206;BME280;1615;53.602;11.418;2023-06-24T09:33:41;101905.91;;;24.23;66.29
3206;BME280;1615;53.602;11.418;2023-06-24T09:36:06;101978.66;;;24.59;60.76
3206;BME280;1615;53.602;11.418;2023-06-24T09:38:35;101978.06;;;24.66;58.38
3206;BME280;1615;53.602;11.418;2023-06-24T09:41:02;101986.56;;;24.69;59.38
3206;BME280;1615;53.602;11.418;2023-06-24T09:43:29;101984.78;;;24.77;59.15
3206;BME280;1615;53.602;11.418;2023-06-24T09:45:55;101885.41;;;24.07;56.59
3206;BME280;1615;53.602;11.418;2023-06-24T09:48:21;101943.19;;;24.39;59.63
3206;BME280;1615;53.602;11.418;2023-06-24T09:50:47;101980.41;;;24.64;59.94
3206;BME280;1615;53.602;11.418;2023-06-24T09:53:13;101973.44;;;24.46;57.12
3206;BME280;1615;53.602;11.418;2023-06-24T09:55:39;101982.59;;;24.70;59.23
3206;BME280;1615;53.602;11.418;2023-06-24T09:58:09;101927.66;;;24.42;58.32
3206;BME280;1615;53.602;11.418;2023-06-24T10:00:36;101958.34;;;24.62;60.05
3206;BME280;1615;53.602;11.418;2023-06-24T10:03:02;101984.41;;;24.78;58.47
3206;BME280;1615;53.602;11.418;2023-06-24T10:05:28;101986.13;;;24.83;60.15
3206;BME280;1615;53.602;11.418;2023-06-24T10:07:53;101984.50;;;24.82;63.48
3206;BME280;1615;53.602;11.418;2023-06-24T10:10:18;101962.16;;;24.70;66.00
3206;BME280;1615;53.602;11.418;2023-06-24T10:12:44;101905.03;;;24.35;62.09
3206;BME280;1615;53.602;11.418;2023-06-24T10:15:10;101963.94;;;24.78;61.59
3206;BME280;1615;53.602;11.418;2023-06-24T10:17:36;101957.84;;;24.60;56.70
3206;BME280;1615;53.602;11.418;2023-06-24T10:20:04;101868.31;;;24.24;57.15
3206;BME280;1615;53.602;11.418;2023-06-24T10:22:31;101948.94;;;24.86;58.80
3206;BME280;1615;53.602;11.418;2023-06-24T10:24:59;101979.72;;;24.98;58.42
3206;BME280;1615;53.602;11.418;2023-06-24T10:27:25;101954.38;;;25.10;61.15
3206;BME280;1615;53.602;11.418;2023-06-24T10:29:53;101960.84;;;25.26;63.80
3206;BME280;1615;53.602;11.418;2023-06-24T10:32:22;101942.25;;;25.06;61.77
3206;BME280;1615;53.602;11.418;2023-06-24T10:34:54;101960.72;;;25.38;59.41
3206;BME280;1615;53.602;11.418;2023-06-24T10:37:21;101961.63;;;25.42;57.02
3206;BME280;1615;53.602;11.418;2023-06-24T10:39:54;101951.78;;;25.32;57.99
3206;BME280;1615;53.602;11.418;2023-06-24T10:44:49;101958.47;;;25.43;57.89
3206;BME280;1615;53.602;11.418;2023-06-24T10:47:15;101935.16;;;25.43;59.39
3206;BME280;1615;53.602;11.418;2023-06-24T10:49:41;101962.22;;;25.66;59.92
3206;BME280;1615;53.602;11.418;2023-06-24T10:52:10;101912.53;;;25.36;55.78
3206;BME280;1615;53.602;11.418;2023-06-24T10:54:41;101954.66;;;25.36;52.39
3206;BME280;1615;53.602;11.418;2023-06-24T10:57:07;101945.13;;;25.40;51.57
3206;BME280;1615;53.602;11.418;2023-06-24T10:59:48;101943.50;;;25.55;54.61
3206;BME280;1615;53.602;11.418;2023-06-24T11:02:18;101944.94;;;25.64;55.92
3206;BME280;1615;53.602;11.418;2023-06-24T11:04:45;101940.66;;;25.70;56.40
3206;BME280;1615;53.602;11.418;2023-06-24T11:07:10;101939.66;;;25.63;54.06
3206;BME280;1615;53.602;11.418;2023-06-24T11:09:36;101871.75;;;25.42;55.21
3206;BME280;1615;53.602;11.418;2023-06-24T11:12:04;101921.66;;;25.83;56.04
3206;BME280;1615;53.602;11.418;2023-06-24T11:14:33;101897.38;;;25.75;54.46
3206;BME280;1615;53.602;11.418;2023-06-24T11:17:01;101914.09;;;25.68;52.48
3206;BME280;1615;53.602;11.418;2023-06-24T11:19:26;101907.41;;;25.57;53.66
3206;BME280;1615;53.602;11.418;2023-06-24T11:21:52;101933.47;;;25.73;54.07
3206;BME280;1615;53.602;11.418;2023-06-24T11:24:17;101903.44;;;25.58;51.85
3206;BME280;1615;53.602;11.418;2023-06-24T11:26:42;101915.50;;;25.58;53.12
3206;BME280;1615;53.602;11.418;2023-06-24T11:29:11;101906.09;;;25.51;53.11
3206;BME280;1615;53.602;11.418;2023-06-24T11:31:36;101909.09;;;25.77;55.68
3206;BME280;1615;53.602;11.418;2023-06-24T11:34:03;101917.13;;;25.94;56.70
3206;BME280;1615;53.602;11.418;2023-06-24T11:36:29;101906.19;;;26.08;57.15
3206;BME280;1615;53.602;11.418;2023-06-24T11:38:54;101914.56;;;25.89;54.05
3206;BME280;1615;53.602;11.418;2023-06-24T11:41:20;101896.06;;;25.88;55.65
3206;BME280;1615;53.602;11.418;2023-06-24T11:43:47;101910.16;;;26.07;57.25
3206;BME280;1615;53.602;11.418;2023-06-24T11:46:26;101841.91;;;25.53;56.68
3206;BME280;1615;53.602;11.418;2023-06-24T11:49:02;101741.66;;;24.84;57.62
3206;BME280;1615;53.602;11.418;2023-06-24T11:51:27;101897.41;;;26.13;60.10
3206;BME280;1615;53.602;11.418;2023-06-24T11:53:53;101880.88;;;26.08;56.33
3206;BME280;1615;53.602;11.418;2023-06-24T11:56:37;101923.38;;;26.44;59.79
3206;BME280;1615;53.602;11.418;2023-06-24T11:59:06;101905.06;;;26.54;62.33
3206;BME280;1615;53.602;11.418;2023-06-24T12:01:35;101810.66;;;26.11;61.23
3206;BME280;1615;53.602;11.418;2023-06-24T12:04:11;101858.16;;;26.39;59.58
3206;BME280;1615;53.602;11.418;2023-06-24T12:06:37;101792.38;;;26.02;56.94
3206;BME280;1615;53.602;11.418;2023-06-24T12:09:03;101893.28;;;26.90;54.54
3206;BME280;1615;53.602;11.418;2023-06-24T12:11:28;101888.38;;;27.09;56.16
3206;BME280;1615;53.602;11.418;2023-06-24T12:13:53;101878.44;;;26.93;53.01
3206;BME280;1615;53.602;11.418;2023-06-24T12:16:18;101899.81;;;26.94;53.92
3206;BME280;1615;53.602;11.418;2023-06-24T12:18:44;101663.31;;;25.52;55.66
3206;BME280;1615;53.602;11.418;2023-06-24T12:21:10;101837.91;;;26.52;56.04
3206;BME280;1615;53.602;11.418;2023-06-24T12:23:35;101908.25;;;26.94;55.06
3206;BME280;1615;53.602;11.418;2023-06-24T12:26:00;101832.16;;;26.45;53.93
3206;BME280;1615;53.602;11.418;2023-06-24T12:28:26;101905.78;;;27.15;55.54
3206;BME280;1615;53.602;11.418;2023-06-24T12:30:51;101905.59;;;27.27;57.39
3206;BME280;1615;53.602;11.418;2023-06-24T12:33:16;101884.47;;;27.40;54.21
3206;BME280;1615;53.602;11.418;2023-06-24T12:35:44;101767.31;;;26.83;51.29
3206;BME280;1615;53.602;11.418;2023-06-24T12:38:09;101876.38;;;27.94;51.89
3206;BME280;1615;53.602;11.418;2023-06-24T12:40:35;101786.31;;;27.75;52.32
3206;BME280;1615;53.602;11.418;2023-06-24T12:43:00;101897.34;;;28.62;50.38
3206;BME280;1615;53.602;11.418;2023-06-24T12:45:25;101887.00;;;28.77;50.17
3206;BME280;1615;53.602;11.418;2023-06-24T12:47:51;101799.16;;;28.42;49.72
3206;BME280;1615;53.602;11.418;2023-06-24T12:50:17;101877.38;;;28.85;49.82
3206;BME280;1615;53.602;11.418;2023-06-24T12:52:42;101889.69;;;29.03;50.74
3206;BME280;1615;53.602;11.418;2023-06-24T12:55:08;101877.59;;;29.06;49.50
3206;BME280;1615;53.602;11.418;2023-06-24T12:57:33;101871.16;;;29.09;51.86
3206;BME280;1615;53.602;11.418;2023-06-24T12:59:59;101878.03;;;29.08;51.72
3206;BME280;1615;53.602;11.418;2023-06-24T13:02:24;101729.91;;;28.08;53.64
3206;BME280;1615;53.602;11.418;2023-06-24T13:04:49;101864.66;;;29.05;49.63
3206;BME280;1615;53.602;11.418;2023-06-24T13:07:15;101886.59;;;29.22;50.51